createdAt,value
2019-02-27T00:00:43.770Z,9.47
2019-02-27T00:01:40.098Z,9.43
2019-02-27T00:02:40.090Z,9.43
2019-02-27T00:03:40.096Z,9.42
2019-02-27T00:04:40.074Z,9.39
2019-02-27T00:05:41.819Z,9.33
2019-02-27T00:06:40.068Z,9.42
2019-02-27T00:07:40.031Z,9.32
2019-02-27T00:08:40.018Z,9.36
2019-02-27T00:09:40.040Z,9.31
2019-02-27T00:10:39.998Z,9.28
2019-02-27T00:11:40.001Z,9.29
2019-02-27T00:12:39.971Z,9.32
2019-02-27T00:13:39.964Z,9.33
2019-02-27T00:14:39.970Z,9.28
2019-02-27T00:15:39.940Z,9.31
2019-02-27T00:16:41.780Z,9.26
2019-02-27T00:17:39.927Z,9.24
2019-02-27T00:18:39.908Z,9.26
2019-02-27T00:19:39.924Z,9.28
2019-02-27T00:20:39.897Z,9.21
2019-02-27T00:21:40.888Z,9.36
2019-02-27T00:22:39.861Z,9.31
2019-02-27T00:23:39.853Z,9.29
2019-02-27T00:24:39.862Z,9.23
2019-02-27T00:25:39.833Z,9.31
2019-02-27T00:26:42.533Z,9.24
2019-02-27T00:27:39.803Z,9.26
2019-02-27T00:28:39.793Z,9.24
2019-02-27T00:29:39.781Z,9.21
2019-02-27T00:30:39.785Z,9.23
2019-02-27T00:31:39.782Z,9.13
2019-02-27T00:32:39.749Z,9.18
2019-02-27T00:33:39.756Z,9.10
2019-02-27T00:34:39.753Z,9.14
2019-02-27T00:35:39.728Z,9.02
2019-02-27T00:36:39.706Z,9.17
2019-02-27T00:37:39.692Z,9.17
2019-02-27T00:38:39.691Z,9.17
2019-02-27T00:39:39.669Z,9.11
2019-02-27T00:40:39.688Z,9.15
2019-02-27T00:41:39.682Z,8.99
2019-02-27T00:42:39.636Z,9.08
2019-02-27T00:43:39.633Z,9.05
2019-02-27T00:44:39.634Z,9.13
2019-02-27T00:45:40.091Z,9.11
2019-02-27T00:46:39.591Z,8.99
2019-02-27T00:47:39.586Z,8.91
2019-02-27T00:48:39.568Z,8.99
2019-02-27T00:49:39.560Z,8.96
2019-02-27T00:50:39.711Z,8.98
2019-02-27T00:51:39.534Z,8.89
2019-02-27T00:52:39.524Z,8.91
2019-02-27T00:53:39.516Z,8.89
2019-02-27T00:54:39.518Z,8.83
2019-02-27T00:55:39.582Z,8.89
2019-02-27T00:56:39.479Z,8.83
2019-02-27T00:57:39.491Z,8.91
2019-02-27T00:58:39.455Z,8.89
2019-02-27T00:59:39.447Z,8.87
2019-02-27T01:00:40.016Z,8.98
2019-02-27T01:01:39.425Z,8.94
2019-02-27T01:02:39.408Z,8.89
2019-02-27T01:03:39.400Z,8.91
2019-02-27T01:04:39.401Z,8.91
2019-02-27T01:05:41.131Z,8.89
2019-02-27T01:06:39.363Z,8.87
2019-02-27T01:07:39.364Z,8.91
2019-02-27T01:08:39.343Z,8.94
2019-02-27T01:09:39.554Z,8.86
2019-02-27T01:10:39.331Z,8.92
2019-02-27T01:11:39.317Z,8.86
2019-02-27T01:12:39.297Z,8.79
2019-02-27T01:13:39.289Z,8.65
2019-02-27T01:14:39.279Z,8.59
2019-02-27T01:15:41.757Z,8.65
2019-02-27T01:16:39.258Z,8.59
2019-02-27T01:17:39.263Z,8.58
2019-02-27T01:18:39.235Z,8.43
2019-02-27T01:19:39.381Z,8.45
2019-02-27T01:20:39.229Z,8.47
2019-02-27T01:21:39.203Z,8.44
2019-02-27T01:22:39.193Z,8.41
2019-02-27T01:23:43.888Z,8.41
2019-02-27T01:24:40.165Z,8.28
2019-02-27T01:25:39.182Z,8.33
2019-02-27T01:26:39.140Z,8.29
2019-02-27T01:27:39.155Z,8.29
2019-02-27T01:28:39.123Z,8.34
2019-02-27T01:29:39.123Z,8.25
2019-02-27T01:30:39.133Z,8.37
2019-02-27T01:31:39.087Z,8.29
2019-02-27T01:32:39.082Z,8.33
2019-02-27T01:33:39.097Z,8.29
2019-02-27T01:34:39.062Z,8.25
2019-02-27T01:35:39.317Z,8.23
2019-02-27T01:36:39.028Z,8.28
2019-02-27T01:37:39.028Z,8.20
2019-02-27T01:38:39.016Z,8.08
2019-02-27T01:39:38.995Z,8.16
2019-02-27T01:40:38.987Z,8.10
2019-02-27T01:41:38.991Z,8.04
2019-02-27T01:42:38.961Z,8.02
2019-02-27T01:43:40.046Z,8.00
2019-02-27T01:44:38.942Z,7.92
2019-02-27T01:45:38.928Z,7.92
2019-02-27T01:46:38.949Z,8.01
2019-02-27T01:47:38.902Z,8.04
2019-02-27T01:48:42.730Z,7.92
2019-02-27T01:49:38.883Z,7.98
2019-02-27T01:50:38.874Z,7.90
2019-02-27T01:51:38.885Z,7.87
2019-02-27T01:52:38.850Z,7.92
2019-02-27T01:53:40.476Z,8.00
2019-02-27T01:54:38.829Z,8.02
2019-02-27T01:55:38.811Z,8.00
2019-02-27T01:56:38.818Z,8.07
2019-02-27T01:57:38.796Z,8.04
2019-02-27T01:58:43.283Z,7.95
2019-02-27T01:59:39.781Z,7.92
2019-02-27T02:00:38.759Z,7.92
2019-02-27T02:01:38.755Z,7.92
2019-02-27T02:02:40.499Z,7.92
2019-02-27T02:03:38.784Z,7.89
2019-02-27T02:04:38.737Z,7.87
2019-02-27T02:05:38.700Z,8.00
2019-02-27T02:06:38.727Z,7.95
2019-02-27T02:07:40.286Z,7.90
2019-02-27T02:08:38.665Z,7.97
2019-02-27T02:09:38.656Z,7.92
2019-02-27T02:10:38.659Z,7.92
2019-02-27T02:11:38.628Z,7.90
2019-02-27T02:12:39.040Z,7.95
2019-02-27T02:13:38.609Z,7.97
2019-02-27T02:14:38.636Z,7.98
2019-02-27T02:15:38.602Z,7.89
2019-02-27T02:16:38.593Z,7.85
2019-02-27T02:17:41.006Z,7.80
2019-02-27T02:18:38.568Z,7.82
2019-02-27T02:19:38.545Z,7.82
2019-02-27T02:20:38.526Z,7.79
2019-02-27T02:21:38.519Z,7.79
2019-02-27T02:22:38.908Z,7.82
2019-02-27T02:23:38.511Z,7.67
2019-02-27T02:24:38.486Z,7.55
2019-02-27T02:25:38.469Z,7.64
2019-02-27T02:26:38.458Z,7.52
2019-02-27T02:27:39.142Z,7.48
2019-02-27T02:28:38.445Z,7.45
2019-02-27T02:29:38.445Z,7.43
2019-02-27T02:30:38.418Z,7.37
2019-02-27T02:31:41.633Z,7.52
2019-02-27T02:32:38.407Z,7.40
2019-02-27T02:33:38.383Z,7.40
2019-02-27T02:34:40.108Z,7.50
2019-02-27T02:35:38.365Z,7.37
2019-02-27T02:36:38.349Z,7.32
2019-02-27T02:37:38.357Z,7.40
2019-02-27T02:38:38.412Z,7.32
2019-02-27T02:39:38.318Z,7.17
2019-02-27T02:40:38.316Z,7.17
2019-02-27T02:41:38.304Z,7.10
2019-02-27T02:42:38.287Z,7.03
2019-02-27T02:43:41.530Z,7.02
2019-02-27T02:44:38.263Z,6.97
2019-02-27T02:45:38.242Z,6.97
2019-02-27T02:46:44.842Z,6.91
2019-02-27T02:47:39.239Z,6.87
2019-02-27T02:48:38.210Z,6.74
2019-02-27T02:49:42.065Z,6.79
2019-02-27T02:50:38.202Z,6.76
2019-02-27T02:51:38.189Z,6.76
2019-02-27T02:52:40.746Z,6.76
2019-02-27T02:53:38.153Z,6.69
2019-02-27T02:54:38.209Z,6.62
2019-02-27T02:55:38.144Z,6.55
2019-02-27T02:56:38.118Z,6.41
2019-02-27T02:57:38.141Z,6.46
2019-02-27T02:58:38.095Z,6.34
2019-02-27T02:59:38.086Z,6.34
2019-02-27T03:00:39.259Z,6.38
2019-02-27T03:01:38.064Z,6.28
2019-02-27T03:02:38.054Z,6.19
2019-02-27T03:03:38.056Z,6.22
2019-02-27T03:04:38.034Z,6.34
2019-02-27T03:05:38.063Z,6.22
2019-02-27T03:06:38.017Z,6.21
2019-02-27T03:07:37.999Z,6.25
2019-02-27T03:08:37.998Z,6.28
2019-02-27T03:09:37.998Z,6.21
2019-02-27T03:10:42.493Z,6.28
2019-02-27T03:11:38.960Z,6.31
2019-02-27T03:12:37.965Z,6.19
2019-02-27T03:13:41.548Z,6.30
2019-02-27T03:14:37.923Z,6.28
2019-02-27T03:15:37.904Z,6.22
2019-02-27T03:16:41.188Z,6.30
2019-02-27T03:17:37.890Z,6.34
2019-02-27T03:18:37.892Z,6.40
2019-02-27T03:19:41.280Z,6.41
2019-02-27T03:20:37.870Z,6.37
2019-02-27T03:21:37.837Z,6.36
2019-02-27T03:22:41.660Z,6.40
2019-02-27T03:23:37.843Z,6.49
2019-02-27T03:24:37.806Z,6.44
2019-02-27T03:25:40.684Z,6.38
2019-02-27T03:26:37.794Z,6.61
2019-02-27T03:27:37.776Z,6.55
2019-02-27T03:28:40.912Z,6.62
2019-02-27T03:29:37.766Z,6.64
2019-02-27T03:30:37.741Z,6.64
2019-02-27T03:31:37.737Z,6.59
2019-02-27T03:32:43.267Z,6.69
2019-02-27T03:33:38.711Z,6.58
2019-02-27T03:34:47.899Z,6.61
2019-02-27T03:35:38.684Z,6.64
2019-02-27T03:36:38.980Z,6.58
2019-02-27T03:37:37.662Z,6.61
2019-02-27T03:38:37.650Z,6.64
2019-02-27T03:39:37.652Z,6.61
2019-02-27T03:40:37.640Z,6.58
2019-02-27T03:41:37.614Z,6.58
2019-02-27T03:42:37.605Z,6.58
2019-02-27T03:43:37.608Z,6.51
2019-02-27T03:44:37.598Z,6.52
2019-02-27T03:45:37.575Z,6.58
2019-02-27T03:46:40.759Z,6.56
2019-02-27T03:47:37.550Z,6.56
2019-02-27T03:48:37.564Z,6.58
2019-02-27T03:49:40.743Z,6.58
2019-02-27T03:50:37.525Z,6.54
2019-02-27T03:51:37.538Z,6.54
2019-02-27T03:52:37.510Z,6.52
2019-02-27T03:53:37.494Z,6.46
2019-02-27T03:54:37.485Z,6.46
2019-02-27T03:55:37.469Z,6.49
2019-02-27T03:56:43.547Z,6.49
2019-02-27T03:57:38.434Z,6.46
2019-02-27T03:58:37.447Z,6.48
2019-02-27T03:59:42.154Z,6.46
2019-02-27T04:00:38.434Z,6.46
2019-02-27T04:01:37.404Z,6.43
2019-02-27T04:02:38.880Z,6.46
2019-02-27T04:03:37.377Z,6.49
2019-02-27T04:04:37.392Z,6.46
2019-02-27T04:05:41.209Z,6.48
2019-02-27T04:06:37.343Z,6.43
2019-02-27T04:07:37.334Z,6.51
2019-02-27T04:08:43.597Z,6.46
2019-02-27T04:09:38.315Z,6.52
2019-02-27T04:10:37.296Z,6.49
2019-02-27T04:11:41.419Z,6.52
2019-02-27T04:12:38.267Z,6.52
2019-02-27T04:13:37.275Z,6.46
2019-02-27T04:14:42.067Z,6.44
2019-02-27T04:15:37.245Z,6.38
2019-02-27T04:16:38.223Z,6.34
2019-02-27T04:17:37.216Z,6.34
2019-02-27T04:18:37.211Z,6.34
2019-02-27T04:19:39.306Z,6.27
2019-02-27T04:20:37.194Z,6.25
2019-02-27T04:21:37.166Z,6.33
2019-02-27T04:22:37.686Z,6.28
2019-02-27T04:23:37.146Z,6.30
2019-02-27T04:24:37.164Z,6.30
2019-02-27T04:25:37.134Z,6.21
2019-02-27T04:26:41.505Z,6.27
2019-02-27T04:27:38.106Z,6.15
2019-02-27T04:28:37.093Z,6.12
2019-02-27T04:29:40.795Z,6.12
2019-02-27T04:30:37.082Z,6.14
2019-02-27T04:31:37.054Z,6.06
2019-02-27T04:32:37.042Z,6.03
2019-02-27T04:33:37.035Z,6.03
2019-02-27T04:34:37.062Z,5.93
2019-02-27T04:35:39.157Z,5.97
2019-02-27T04:36:37.004Z,5.94
2019-02-27T04:37:36.988Z,5.90
2019-02-27T04:38:36.976Z,5.91
2019-02-27T04:39:38.281Z,5.97
2019-02-27T04:40:36.987Z,5.85
2019-02-27T04:41:36.945Z,5.91
2019-02-27T04:42:36.950Z,5.81
2019-02-27T04:43:36.928Z,5.67
2019-02-27T04:44:38.910Z,5.82
2019-02-27T04:45:36.915Z,5.67
2019-02-27T04:46:36.889Z,5.68
2019-02-27T04:47:36.873Z,5.63
2019-02-27T04:48:36.864Z,5.68
2019-02-27T04:49:37.822Z,5.53
2019-02-27T04:50:36.854Z,5.61
2019-02-27T04:51:36.858Z,5.56
2019-02-27T04:52:36.820Z,5.61
2019-02-27T04:53:36.809Z,5.57
2019-02-27T04:54:41.251Z,5.57
2019-02-27T04:55:37.829Z,5.72
2019-02-27T04:56:36.780Z,5.67
2019-02-27T04:57:36.765Z,5.72
2019-02-27T04:58:36.753Z,5.72
2019-02-27T04:59:36.746Z,5.75
2019-02-27T05:00:36.746Z,5.76
2019-02-27T05:01:37.450Z,5.78
2019-02-27T05:02:36.707Z,5.78
2019-02-27T05:03:36.731Z,5.85
2019-02-27T05:04:36.708Z,5.99
2019-02-27T05:05:39.056Z,5.96
2019-02-27T05:06:36.666Z,6.00
2019-02-27T05:07:36.671Z,5.90
2019-02-27T05:08:36.665Z,5.99
2019-02-27T05:09:36.653Z,6.03
2019-02-27T05:10:38.114Z,6.01
2019-02-27T05:11:36.624Z,6.09
2019-02-27T05:12:36.604Z,6.06
2019-02-27T05:13:36.592Z,6.03
2019-02-27T05:14:36.576Z,5.96
2019-02-27T05:15:38.897Z,5.90
2019-02-27T05:16:36.549Z,5.90
2019-02-27T05:17:36.538Z,5.79
2019-02-27T05:18:36.542Z,5.76
2019-02-27T05:19:37.220Z,5.82
2019-02-27T05:20:36.516Z,5.76
2019-02-27T05:21:36.507Z,5.82
2019-02-27T05:22:36.509Z,5.81
2019-02-27T05:23:36.478Z,5.86
2019-02-27T05:24:40.642Z,5.83
2019-02-27T05:25:36.447Z,5.85
2019-02-27T05:26:36.446Z,5.86
2019-02-27T05:27:36.431Z,5.86
2019-02-27T05:28:36.427Z,5.86
2019-02-27T05:29:37.534Z,5.90
2019-02-27T05:30:36.401Z,5.94
2019-02-27T05:31:36.400Z,5.93
2019-02-27T05:32:36.371Z,5.94
2019-02-27T05:33:38.869Z,5.91
2019-02-27T05:34:36.352Z,5.99
2019-02-27T05:35:36.343Z,5.94
2019-02-27T05:36:36.340Z,5.90
2019-02-27T05:37:39.247Z,5.90
2019-02-27T05:38:36.320Z,5.99
2019-02-27T05:39:36.310Z,6.00
2019-02-27T05:40:36.291Z,5.96
2019-02-27T05:41:36.285Z,5.96
2019-02-27T05:42:38.604Z,5.99
2019-02-27T05:43:36.256Z,5.94
2019-02-27T05:44:36.262Z,5.97
2019-02-27T05:45:36.227Z,5.96
2019-02-27T05:46:38.503Z,5.99
2019-02-27T05:47:36.203Z,5.94
2019-02-27T05:48:36.195Z,5.96
2019-02-27T05:49:36.237Z,5.90
2019-02-27T05:50:36.178Z,5.96
2019-02-27T05:51:36.155Z,5.85
2019-02-27T05:52:36.164Z,5.89
2019-02-27T05:53:36.169Z,5.89
2019-02-27T05:54:36.130Z,5.90
2019-02-27T05:55:38.981Z,5.79
2019-02-27T05:56:36.126Z,5.75
2019-02-27T05:57:36.146Z,5.68
2019-02-27T05:58:36.125Z,5.60
2019-02-27T05:59:36.070Z,5.54
2019-02-27T06:00:36.062Z,5.60
2019-02-27T06:01:38.302Z,5.63
2019-02-27T06:02:36.058Z,5.58
2019-02-27T06:03:36.025Z,5.53
2019-02-27T06:04:36.025Z,5.49
2019-02-27T06:05:36.646Z,5.46
2019-02-27T06:06:35.993Z,5.46
2019-02-27T06:07:35.988Z,5.40
2019-02-27T06:08:38.092Z,5.38
2019-02-27T06:09:35.959Z,5.28
2019-02-27T06:10:35.943Z,5.24
2019-02-27T06:11:36.015Z,5.21
2019-02-27T06:12:39.995Z,5.18
2019-02-27T06:13:35.910Z,5.18
2019-02-27T06:14:35.902Z,5.15
2019-02-27T06:15:35.909Z,5.10
2019-02-27T06:16:37.543Z,5.13
2019-02-27T06:17:43.130Z,5.07
2019-02-27T06:18:36.851Z,5.12
2019-02-27T06:19:35.871Z,5.13
2019-02-27T06:20:35.829Z,5.04
2019-02-27T06:21:35.871Z,4.97
2019-02-27T06:22:35.829Z,4.86
2019-02-27T06:23:37.730Z,4.88
2019-02-27T06:24:35.801Z,4.92
2019-02-27T06:25:35.827Z,4.77
2019-02-27T06:26:35.802Z,4.89
2019-02-27T06:27:37.201Z,4.82
2019-02-27T06:28:36.152Z,4.78
2019-02-27T06:29:35.814Z,4.91
2019-02-27T06:30:35.733Z,4.88
2019-02-27T06:31:38.845Z,4.91
2019-02-27T06:32:35.810Z,4.91
2019-02-27T06:33:35.701Z,4.85
2019-02-27T06:34:35.673Z,4.96
2019-02-27T06:35:35.685Z,4.92
2019-02-27T06:36:35.650Z,4.94
2019-02-27T06:37:35.638Z,4.92
2019-02-27T06:38:35.641Z,4.94
2019-02-27T06:39:35.618Z,5.02
2019-02-27T06:40:35.615Z,4.91
2019-02-27T06:41:35.607Z,4.99
2019-02-27T06:42:35.612Z,5.02
2019-02-27T06:43:35.587Z,5.02
2019-02-27T06:44:36.638Z,5.07
2019-02-27T06:45:35.553Z,5.04
2019-02-27T06:46:35.544Z,5.15
2019-02-27T06:47:36.213Z,5.13
2019-02-27T06:48:35.584Z,5.15
2019-02-27T06:49:35.514Z,5.17
2019-02-27T06:50:35.518Z,5.20
2019-02-27T06:51:35.922Z,5.21
2019-02-27T06:52:35.471Z,5.27
2019-02-27T06:53:35.473Z,5.21
2019-02-27T06:54:35.470Z,5.22
2019-02-27T06:55:35.448Z,5.28
2019-02-27T06:56:35.429Z,5.35
2019-02-27T06:57:35.414Z,5.36
2019-02-27T06:58:35.418Z,5.38
2019-02-27T06:59:35.430Z,5.40
2019-02-27T07:00:36.762Z,5.49
2019-02-27T07:01:35.372Z,5.46
2019-02-27T07:02:35.374Z,5.51
2019-02-27T07:03:35.363Z,5.46
2019-02-27T07:04:36.486Z,5.49
2019-02-27T07:05:35.351Z,5.39
2019-02-27T07:06:36.879Z,5.54
2019-02-27T07:07:35.325Z,5.46
2019-02-27T07:08:37.920Z,5.53
2019-02-27T07:09:35.285Z,5.58
2019-02-27T07:10:35.282Z,5.57
2019-02-27T07:11:35.290Z,5.49
2019-02-27T07:12:35.254Z,5.67
2019-02-27T07:13:35.239Z,5.72
2019-02-27T07:14:36.502Z,5.68
2019-02-27T07:15:35.223Z,5.68
2019-02-27T07:16:35.203Z,5.76
2019-02-27T07:17:35.190Z,5.76
2019-02-27T07:18:36.495Z,5.81
2019-02-27T07:19:35.185Z,5.79
2019-02-27T07:20:35.160Z,5.86
2019-02-27T07:21:35.160Z,5.82
2019-02-27T07:22:35.135Z,5.96
2019-02-27T07:23:35.330Z,5.96
2019-02-27T07:24:35.123Z,5.94
2019-02-27T07:25:35.100Z,5.86
2019-02-27T07:26:35.097Z,6.00
2019-02-27T07:27:35.089Z,6.11
2019-02-27T07:28:35.075Z,6.09
2019-02-27T07:29:35.091Z,6.11
2019-02-27T07:30:35.086Z,6.17
2019-02-27T07:31:35.056Z,6.12
2019-02-27T07:32:35.053Z,6.28
2019-02-27T07:33:35.024Z,6.21
2019-02-27T07:34:35.023Z,6.21
2019-02-27T07:35:34.991Z,6.37
2019-02-27T07:36:35.962Z,6.33
2019-02-27T07:37:34.972Z,6.43
2019-02-27T07:38:34.963Z,6.51
2019-02-27T07:39:34.963Z,6.41
2019-02-27T07:40:34.932Z,6.51
2019-02-27T07:41:34.930Z,6.48
2019-02-27T07:42:36.310Z,6.49
2019-02-27T07:43:34.958Z,6.54
2019-02-27T07:44:35.844Z,6.62
2019-02-27T07:45:34.899Z,6.62
2019-02-27T07:46:35.572Z,6.67
2019-02-27T07:47:34.851Z,6.61
2019-02-27T07:48:34.858Z,6.73
2019-02-27T07:49:34.850Z,6.73
2019-02-27T07:50:34.826Z,6.71
2019-02-27T07:51:34.819Z,6.79
2019-02-27T07:52:34.813Z,6.77
2019-02-27T07:53:34.789Z,6.77
2019-02-27T07:54:34.800Z,6.89
2019-02-27T07:55:34.823Z,6.81
2019-02-27T07:56:34.759Z,6.89
2019-02-27T07:57:34.756Z,6.89
2019-02-27T07:58:34.780Z,6.88
2019-02-27T07:59:37.959Z,6.87
2019-02-27T08:00:34.761Z,6.80
2019-02-27T08:01:43.500Z,6.89
2019-02-27T08:02:36.225Z,6.94
2019-02-27T08:03:34.693Z,6.94
2019-02-27T08:04:34.664Z,6.98
2019-02-27T08:05:34.665Z,6.99
2019-02-27T08:06:37.368Z,7.06
2019-02-27T08:07:34.635Z,7.16
2019-02-27T08:08:34.638Z,7.23
2019-02-27T08:09:34.644Z,7.28
2019-02-27T08:10:36.862Z,7.31
2019-02-27T08:11:34.586Z,7.31
2019-02-27T08:12:34.584Z,7.27
2019-02-27T08:13:34.593Z,7.43
2019-02-27T08:14:36.755Z,7.43
2019-02-27T08:15:34.596Z,7.45
2019-02-27T08:16:36.943Z,7.40
2019-02-27T08:17:34.519Z,7.45
2019-02-27T08:18:37.720Z,7.48
2019-02-27T08:19:34.508Z,7.42
2019-02-27T08:20:34.511Z,7.42
2019-02-27T08:21:34.489Z,7.45
2019-02-27T08:22:34.467Z,7.57
2019-02-27T08:23:34.495Z,7.57
2019-02-27T08:24:34.444Z,7.67
2019-02-27T08:25:34.711Z,7.63
2019-02-27T08:26:36.450Z,7.74
2019-02-27T08:27:34.410Z,7.75
2019-02-27T08:28:34.395Z,7.79
2019-02-27T08:29:34.394Z,7.89
2019-02-27T08:30:34.401Z,7.80
2019-02-27T08:31:34.410Z,7.92
2019-02-27T08:32:34.624Z,7.90
2019-02-27T08:33:34.358Z,8.00
2019-02-27T08:34:34.327Z,8.07
2019-02-27T08:35:34.370Z,8.22
2019-02-27T08:36:34.306Z,8.29
2019-02-27T08:37:34.312Z,8.45
2019-02-27T08:38:34.286Z,8.74
2019-02-27T08:39:34.274Z,9.28
2019-02-27T08:40:34.280Z,9.97
2019-02-27T08:41:34.255Z,10.68
2019-02-27T08:42:36.848Z,11.49
2019-02-27T08:43:34.291Z,12.04
2019-02-27T08:44:34.220Z,12.28
2019-02-27T08:45:34.220Z,12.35
2019-02-27T08:46:36.995Z,12.38
2019-02-27T08:47:34.182Z,12.31
2019-02-27T08:48:34.174Z,12.16
2019-02-27T08:49:34.160Z,12.24
2019-02-27T08:50:34.170Z,12.39
2019-02-27T08:51:34.139Z,12.72
2019-02-27T08:52:34.133Z,12.85
2019-02-27T08:53:34.569Z,13.28
2019-02-27T08:54:34.106Z,13.71
2019-02-27T08:55:34.123Z,14.07
2019-02-27T08:56:34.079Z,14.42
2019-02-27T08:57:34.165Z,14.65
2019-02-27T08:58:34.057Z,14.40
2019-02-27T08:59:34.059Z,14.10
2019-02-27T09:00:34.058Z,13.67
2019-02-27T09:01:34.032Z,12.89
2019-02-27T09:02:34.012Z,12.52
2019-02-27T09:03:36.360Z,12.47
2019-02-27T09:04:33.992Z,12.60
2019-02-27T09:05:33.992Z,13.20
2019-02-27T09:06:34.008Z,13.79
2019-02-27T09:07:36.484Z,14.24
2019-02-27T09:08:33.946Z,14.64
2019-02-27T09:09:36.127Z,14.99
2019-02-27T09:10:33.929Z,15.51
2019-02-27T09:11:33.936Z,15.41
2019-02-27T09:12:33.914Z,14.84
2019-02-27T09:13:33.894Z,14.35
2019-02-27T09:14:33.888Z,14.43
2019-02-27T09:15:33.865Z,14.78
2019-02-27T09:16:33.867Z,15.10
2019-02-27T09:17:33.850Z,15.25
2019-02-27T09:18:36.481Z,15.01
2019-02-27T09:19:33.821Z,14.64
2019-02-27T09:20:33.810Z,14.00
2019-02-27T09:21:33.807Z,13.54
2019-02-27T09:22:36.552Z,13.22
2019-02-27T09:23:33.778Z,13.08
2019-02-27T09:24:33.784Z,12.90
2019-02-27T09:25:33.753Z,12.85
2019-02-27T09:26:35.833Z,12.92
2019-02-27T09:27:35.312Z,13.07
2019-02-27T09:28:33.719Z,13.42
2019-02-27T09:29:33.723Z,13.46
2019-02-27T09:30:33.712Z,13.63
2019-02-27T09:31:34.733Z,13.81
2019-02-27T09:32:33.671Z,13.99
2019-02-27T09:33:38.931Z,14.47
2019-02-27T09:34:34.684Z,14.78
2019-02-27T09:35:38.324Z,14.75
2019-02-27T09:36:34.638Z,15.11
2019-02-27T09:37:34.605Z,15.34
2019-02-27T09:38:33.606Z,15.69
2019-02-27T09:39:35.112Z,16.27
2019-02-27T09:40:38.543Z,16.86
2019-02-27T09:41:34.581Z,17.07
2019-02-27T09:42:33.559Z,17.07
2019-02-27T09:43:33.562Z,17.00
2019-02-27T09:44:36.351Z,17.07
2019-02-27T09:45:34.874Z,17.11
2019-02-27T09:46:33.543Z,16.76
2019-02-27T09:47:33.507Z,16.70
2019-02-27T09:48:34.080Z,16.58
2019-02-27T09:49:33.483Z,16.43
2019-02-27T09:50:33.471Z,16.58
2019-02-27T09:51:33.484Z,16.61
2019-02-27T09:52:33.448Z,16.56
2019-02-27T09:53:33.935Z,16.71
2019-02-27T09:54:34.038Z,16.73
2019-02-27T09:55:33.411Z,16.93
2019-02-27T09:56:33.402Z,16.91
2019-02-27T09:57:35.338Z,16.46
2019-02-27T09:58:33.388Z,16.31
2019-02-27T09:59:33.365Z,16.30
2019-02-27T10:00:33.479Z,16.88
2019-02-27T10:01:35.149Z,17.18
2019-02-27T10:02:33.654Z,17.15
2019-02-27T10:03:33.380Z,16.98
2019-02-27T10:04:33.316Z,16.39
2019-02-27T10:05:36.256Z,16.27
2019-02-27T10:06:33.310Z,15.54
2019-02-27T10:07:33.287Z,14.96
2019-02-27T10:08:33.286Z,15.06
2019-02-27T10:09:34.875Z,15.47
2019-02-27T10:10:33.281Z,15.74
2019-02-27T10:11:33.229Z,15.82
2019-02-27T10:12:33.246Z,15.78
2019-02-27T10:13:35.447Z,16.11
2019-02-27T10:14:33.205Z,16.52
2019-02-27T10:15:34.471Z,16.76
2019-02-27T10:16:34.861Z,16.68
2019-02-27T10:17:33.174Z,16.39
2019-02-27T10:18:33.154Z,16.39
2019-02-27T10:19:33.140Z,16.14
2019-02-27T10:20:36.696Z,15.69
2019-02-27T10:21:33.138Z,15.56
2019-02-27T10:22:33.142Z,15.49
2019-02-27T10:23:33.097Z,15.50
2019-02-27T10:24:33.089Z,15.65
2019-02-27T10:25:33.073Z,15.92
2019-02-27T10:26:33.076Z,16.01
2019-02-27T10:27:33.077Z,16.33
2019-02-27T10:28:35.641Z,16.24
2019-02-27T10:29:34.027Z,16.08
2019-02-27T10:30:33.016Z,16.17
2019-02-27T10:31:33.007Z,16.28
2019-02-27T10:32:36.457Z,16.21
2019-02-27T10:33:33.011Z,16.02
2019-02-27T10:34:32.973Z,15.86
2019-02-27T10:35:34.706Z,15.76
2019-02-27T10:36:32.947Z,15.62
2019-02-27T10:37:32.971Z,15.60
2019-02-27T10:38:32.940Z,15.46
2019-02-27T10:39:36.894Z,15.50
2019-02-27T10:40:32.911Z,15.86
2019-02-27T10:41:32.897Z,16.31
2019-02-27T10:42:32.879Z,16.63
2019-02-27T10:43:32.934Z,16.89
2019-02-27T10:44:33.929Z,16.91
2019-02-27T10:45:32.874Z,17.19
2019-02-27T10:46:32.834Z,17.66
2019-02-27T10:47:33.667Z,17.72
2019-02-27T10:48:32.839Z,17.86
2019-02-27T10:49:32.844Z,17.84
2019-02-27T10:50:35.389Z,18.03
2019-02-27T10:51:32.785Z,18.44
2019-02-27T10:52:32.792Z,18.70
2019-02-27T10:53:32.799Z,18.80
2019-02-27T10:54:32.758Z,19.06
2019-02-27T10:55:32.756Z,18.90
2019-02-27T10:56:32.777Z,18.78
2019-02-27T10:57:38.177Z,18.39
2019-02-27T10:58:33.707Z,18.29
2019-02-27T10:59:32.692Z,18.12
2019-02-27T11:00:32.681Z,18.03
2019-02-27T11:01:33.204Z,18.15
2019-02-27T11:02:32.660Z,18.50
2019-02-27T11:03:32.654Z,18.78
2019-02-27T11:04:32.635Z,19.14
2019-02-27T11:05:32.619Z,19.18
2019-02-27T11:06:34.207Z,19.21
2019-02-27T11:07:32.605Z,19.10
2019-02-27T11:08:32.611Z,19.22
2019-02-27T11:09:32.588Z,19.23
2019-02-27T11:10:32.566Z,18.88
2019-02-27T11:11:32.563Z,18.90
2019-02-27T11:12:32.543Z,19.00
2019-02-27T11:13:32.542Z,19.10
2019-02-27T11:14:32.782Z,19.04
2019-02-27T11:15:32.521Z,19.13
2019-02-27T11:16:32.531Z,19.18
2019-02-27T11:17:32.499Z,19.43
2019-02-27T11:18:32.483Z,19.26
2019-02-27T11:19:34.605Z,19.26
2019-02-27T11:20:32.492Z,19.63
2019-02-27T11:21:32.458Z,20.01
2019-02-27T11:22:32.432Z,20.32
2019-02-27T11:23:32.423Z,20.84
2019-02-27T11:24:32.428Z,21.21
2019-02-27T11:25:32.401Z,21.31
2019-02-27T11:26:33.341Z,21.40
2019-02-27T11:27:32.377Z,21.44
2019-02-27T11:28:32.370Z,21.42
2019-02-27T11:29:32.402Z,21.40
2019-02-27T11:30:35.987Z,21.37
2019-02-27T11:31:32.326Z,21.25
2019-02-27T11:32:32.331Z,20.61
2019-02-27T11:33:33.466Z,20.36
2019-02-27T11:34:32.305Z,19.91
2019-02-27T11:35:32.282Z,19.41
2019-02-27T11:36:32.268Z,18.78
2019-02-27T11:37:32.285Z,18.45
2019-02-27T11:38:32.267Z,18.12
2019-02-27T11:39:32.903Z,18.15
2019-02-27T11:40:32.231Z,18.42
2019-02-27T11:41:32.348Z,18.37
2019-02-27T11:42:32.743Z,18.29
2019-02-27T11:43:32.204Z,18.32
2019-02-27T11:44:32.215Z,18.29
2019-02-27T11:45:32.168Z,18.42
2019-02-27T11:46:32.158Z,18.42
2019-02-27T11:47:32.151Z,18.57
2019-02-27T11:48:32.134Z,18.65
2019-02-27T11:49:32.146Z,18.63
2019-02-27T11:50:32.122Z,18.52
2019-02-27T11:51:32.119Z,18.60
2019-02-27T11:52:32.094Z,18.81
2019-02-27T11:53:35.647Z,19.06
2019-02-27T11:54:32.078Z,19.23
2019-02-27T11:55:32.067Z,19.50
2019-02-27T11:56:32.058Z,19.37
2019-02-27T11:57:32.037Z,19.25
2019-02-27T11:58:32.047Z,18.90
2019-02-27T11:59:32.010Z,18.44
2019-02-27T12:00:32.007Z,18.42
2019-02-27T12:01:32.222Z,18.44
2019-02-27T12:02:36.890Z,18.29
2019-02-27T12:03:32.963Z,18.51
2019-02-27T12:04:31.993Z,18.78
2019-02-27T12:05:34.307Z,19.13
2019-02-27T12:06:31.939Z,19.11
2019-02-27T12:07:31.928Z,18.92
2019-02-27T12:08:31.909Z,18.66
2019-02-27T12:09:34.978Z,18.55
2019-02-27T12:10:31.904Z,18.51
2019-02-27T12:11:31.878Z,18.52
2019-02-27T12:12:31.864Z,18.63
2019-02-27T12:13:32.342Z,18.75
2019-02-27T12:14:31.841Z,18.73
2019-02-27T12:15:31.864Z,18.60
2019-02-27T12:16:33.354Z,18.73
2019-02-27T12:17:31.866Z,18.44
2019-02-27T12:18:32.171Z,18.41
2019-02-27T12:19:31.788Z,18.42
2019-02-27T12:20:31.797Z,18.33
2019-02-27T12:21:31.798Z,18.44
2019-02-27T12:22:32.952Z,18.39
2019-02-27T12:23:31.739Z,18.60
2019-02-27T12:24:31.729Z,18.58
2019-02-27T12:25:32.402Z,18.70
2019-02-27T12:26:34.435Z,18.76
2019-02-27T12:27:48.767Z,18.94
2019-02-27T12:28:32.690Z,19.32
2019-02-27T12:29:31.683Z,19.61
2019-02-27T12:30:31.668Z,19.54
2019-02-27T12:31:31.672Z,19.04
2019-02-27T12:32:31.651Z,19.07
2019-02-27T12:33:31.675Z,19.26
2019-02-27T12:34:34.029Z,19.74
2019-02-27T12:35:32.612Z,20.20
2019-02-27T12:36:31.626Z,20.23
2019-02-27T12:37:34.745Z,20.41
2019-02-27T12:38:31.576Z,21.10
2019-02-27T12:39:31.566Z,21.59
2019-02-27T12:40:31.548Z,21.84
2019-02-27T12:41:32.512Z,21.86
2019-02-27T12:42:37.078Z,21.94
2019-02-27T12:43:32.549Z,22.03
2019-02-27T12:44:31.513Z,22.15
2019-02-27T12:45:31.550Z,22.39
2019-02-27T12:46:31.858Z,22.22
2019-02-27T12:47:31.471Z,22.18
2019-02-27T12:48:31.461Z,22.21
2019-02-27T12:49:31.455Z,21.82
2019-02-27T12:50:31.702Z,21.27
2019-02-27T12:51:31.755Z,21.25
2019-02-27T12:52:31.415Z,21.49
2019-02-27T12:53:31.403Z,21.90
2019-02-27T12:54:31.392Z,22.46
2019-02-27T12:55:35.430Z,22.80
2019-02-27T12:56:31.382Z,23.23
2019-02-27T12:57:31.355Z,23.36
2019-02-27T12:58:31.354Z,23.53
2019-02-27T12:59:33.029Z,23.69
2019-02-27T13:00:31.356Z,23.83
2019-02-27T13:01:31.391Z,23.63
2019-02-27T13:02:35.631Z,23.39
2019-02-27T13:03:31.310Z,23.04
2019-02-27T13:04:31.285Z,23.10
2019-02-27T13:05:31.271Z,23.76
2019-02-27T13:06:34.281Z,24.50
2019-02-27T13:07:32.245Z,25.06
2019-02-27T13:08:31.239Z,25.50
2019-02-27T13:09:31.231Z,26.25